createdAt,value
2023-03-17T00:01:05.307Z,9.17
2023-03-17T00:03:35.709Z,9.28
2023-03-17T00:06:04.561Z,9.20
2023-03-17T00:08:35.847Z,8.84
2023-03-17T00:11:02.558Z,8.81
2023-03-17T00:13:30.832Z,8.97
2023-03-17T00:16:02.932Z,9.24
2023-03-17T00:18:31.548Z,9.07
2023-03-17T00:20:58.751Z,8.94
2023-03-17T00:23:25.441Z,8.93
2023-03-17T00:25:54.153Z,8.87
2023-03-17T00:28:23.521Z,8.97
2023-03-17T00:30:54.689Z,9.08
2023-03-17T00:33:25.465Z,9.09
2023-03-17T00:35:52.546Z,9.15
2023-03-17T00:38:21.480Z,9.03
2023-03-17T00:40:48.146Z,9.03
2023-03-17T00:43:14.924Z,8.96
2023-03-17T00:45:42.553Z,8.56
2023-03-17T00:48:17.296Z,9.00
2023-03-17T00:50:44.980Z,8.67
2023-03-17T00:53:13.775Z,9.29
2023-03-17T00:55:41.418Z,9.39
2023-03-17T00:58:14.918Z,9.33
2023-03-17T01:00:41.478Z,8.84
2023-03-17T01:03:11.413Z,8.93
2023-03-17T01:05:39.017Z,9.03
2023-03-17T01:08:05.667Z,9.11
2023-03-17T01:10:32.643Z,8.78
2023-03-17T01:12:59.189Z,8.95
2023-03-17T01:15:30.333Z,8.87
2023-03-17T01:17:57.482Z,9.19
2023-03-17T01:20:30.803Z,9.08
2023-03-17T01:22:57.544Z,9.06
2023-03-17T01:25:24.335Z,9.14
2023-03-17T01:27:51.499Z,9.27
2023-03-17T01:30:29.223Z,9.18
2023-03-17T01:32:57.127Z,8.78
2023-03-17T01:35:24.465Z,9.08
2023-03-17T01:37:51.254Z,9.14
2023-03-17T01:40:22.144Z,9.18
2023-03-17T01:42:54.164Z,9.26
2023-03-17T01:45:59.371Z,9.33
2023-03-17T01:48:26.472Z,9.47
2023-03-17T01:50:53.469Z,9.38
2023-03-17T01:53:21.454Z,9.30
2023-03-17T01:55:48.456Z,9.28
2023-03-17T01:58:16.189Z,9.27
2023-03-17T02:00:43.941Z,8.98
2023-03-17T02:03:11.598Z,9.17
2023-03-17T02:05:38.522Z,9.11
2023-03-17T02:08:16.402Z,9.31
2023-03-17T02:10:43.364Z,9.01
2023-03-17T02:13:13.122Z,9.23
2023-03-17T02:15:42.368Z,9.24
2023-03-17T02:18:09.800Z,9.26
2023-03-17T02:20:36.494Z,9.45
2023-03-17T02:23:04.288Z,9.33
2023-03-17T02:25:35.464Z,9.24
2023-03-17T02:28:11.135Z,9.23
2023-03-17T02:30:37.683Z,9.28
2023-03-17T02:33:04.403Z,9.20
2023-03-17T02:35:31.487Z,9.05
2023-03-17T02:37:58.289Z,9.04
2023-03-17T02:40:24.931Z,9.02
2023-03-17T02:42:51.443Z,9.04
2023-03-17T02:45:18.063Z,8.85
2023-03-17T02:47:45.329Z,8.90
2023-03-17T02:50:18.896Z,8.87
2023-03-17T02:52:45.536Z,8.74
2023-03-17T02:55:12.097Z,8.61
2023-03-17T02:57:38.617Z,8.84
2023-03-17T03:00:05.929Z,8.60
2023-03-17T03:02:32.476Z,8.61
2023-03-17T03:04:59.441Z,8.66
2023-03-17T03:07:26.340Z,8.74
2023-03-17T03:09:52.830Z,8.67
2023-03-17T03:12:19.328Z,8.84
2023-03-17T03:14:45.990Z,8.99
2023-03-17T03:17:12.505Z,8.53
2023-03-17T03:19:39.367Z,8.85
2023-03-17T03:22:06.246Z,8.72
2023-03-17T03:24:32.786Z,8.72
2023-03-17T03:26:59.366Z,8.85
2023-03-17T03:29:25.839Z,9.02
2023-03-17T03:31:52.371Z,8.97
2023-03-17T03:34:19.237Z,9.10
2023-03-17T03:36:45.877Z,8.50
2023-03-17T03:39:14.422Z,8.99
2023-03-17T03:41:41.403Z,8.84
2023-03-17T03:44:07.970Z,8.88
2023-03-17T03:46:34.497Z,8.67
2023-03-17T03:49:01.222Z,8.78
2023-03-17T03:51:27.969Z,8.66
2023-03-17T03:53:54.516Z,8.59
2023-03-17T03:56:21.598Z,8.68
2023-03-17T03:58:48.120Z,8.66
2023-03-17T04:01:14.627Z,8.62
2023-03-17T04:03:41.252Z,8.54
2023-03-17T04:06:07.782Z,8.63
2023-03-17T04:08:34.320Z,8.59
2023-03-17T04:11:00.826Z,8.64
2023-03-17T04:13:27.347Z,8.46
2023-03-17T04:15:53.836Z,8.52
2023-03-17T04:18:20.366Z,8.55
2023-03-17T04:20:47.938Z,8.65
2023-03-17T04:23:14.481Z,8.59
2023-03-17T04:25:40.967Z,8.56
2023-03-17T04:28:09.000Z,8.45
2023-03-17T04:30:35.611Z,8.45
2023-03-17T04:33:02.393Z,8.51
2023-03-17T04:35:29.159Z,8.49
2023-03-17T04:37:55.996Z,8.49
2023-03-17T04:40:22.690Z,8.57
2023-03-17T04:42:49.234Z,8.41
2023-03-17T04:45:16.727Z,8.37
2023-03-17T04:47:43.775Z,8.31
2023-03-17T04:50:10.843Z,8.31
2023-03-17T04:52:37.425Z,8.21
2023-03-17T04:55:06.726Z,8.24
2023-03-17T04:57:33.220Z,8.07
2023-03-17T04:59:59.744Z,8.13
2023-03-17T05:02:26.619Z,8.19
2023-03-17T05:04:53.494Z,8.04
2023-03-17T05:07:20.010Z,8.09
2023-03-17T05:09:47.419Z,7.95
2023-03-17T05:12:14.169Z,8.04
2023-03-17T05:14:41.046Z,8.08
2023-03-17T05:17:07.672Z,8.03
2023-03-17T05:19:34.218Z,7.92
2023-03-17T05:22:01.014Z,7.96
2023-03-17T05:24:27.565Z,8.06
2023-03-17T05:26:54.112Z,7.96
2023-03-17T05:29:20.741Z,8.02
2023-03-17T05:31:47.469Z,8.08
2023-03-17T05:34:14.025Z,7.89
2023-03-17T05:36:40.673Z,7.90
2023-03-17T05:39:07.437Z,7.85
2023-03-17T05:41:33.969Z,7.86
2023-03-17T05:44:00.890Z,7.75
2023-03-17T05:46:27.439Z,7.87
2023-03-17T05:48:53.966Z,7.89
2023-03-17T05:51:21.346Z,7.94
2023-03-17T05:53:47.829Z,7.85
2023-03-17T05:56:14.390Z,7.95
2023-03-17T05:58:41.688Z,8.10
2023-03-17T06:01:08.253Z,7.98
2023-03-17T06:03:34.828Z,8.12
2023-03-17T06:06:01.621Z,8.15
2023-03-17T06:08:28.120Z,8.26
2023-03-17T06:10:54.629Z,8.22
2023-03-17T06:13:21.268Z,8.27
2023-03-17T06:15:48.625Z,8.25
2023-03-17T06:18:15.338Z,8.25
2023-03-17T06:20:41.847Z,8.19
2023-03-17T06:23:08.417Z,7.77
2023-03-17T06:25:35.435Z,7.16
2023-03-17T06:28:03.656Z,7.48
2023-03-17T06:30:33.824Z,8.02
2023-03-17T06:33:01.228Z,8.25
2023-03-17T06:35:28.570Z,8.02
2023-03-17T06:37:55.284Z,8.09
2023-03-17T06:40:22.055Z,8.29
2023-03-17T06:42:48.570Z,8.25
2023-03-17T06:45:15.495Z,8.27
2023-03-17T06:47:42.154Z,8.14
2023-03-17T06:50:09.853Z,8.37
2023-03-17T06:52:37.129Z,8.43
2023-03-17T06:55:04.912Z,8.27
2023-03-17T06:57:32.315Z,7.95
2023-03-17T06:59:58.974Z,8.01
2023-03-17T07:02:25.614Z,8.43
2023-03-17T07:04:52.290Z,7.96
2023-03-17T07:07:20.862Z,8.37
2023-03-17T07:09:48.010Z,8.55
2023-03-17T07:12:14.715Z,8.47
2023-03-17T07:14:41.738Z,8.94
2023-03-17T07:17:12.460Z,8.68
2023-03-17T07:19:39.930Z,8.74
2023-03-17T07:22:07.143Z,8.95
2023-03-17T07:24:33.701Z,9.30
2023-03-17T07:27:00.376Z,8.74
2023-03-17T07:29:27.495Z,9.21
2023-03-17T07:31:54.079Z,9.47
2023-03-17T07:34:20.657Z,9.68
2023-03-17T07:36:47.208Z,9.03
2023-03-17T07:39:13.865Z,9.73
2023-03-17T07:41:41.347Z,9.98
2023-03-17T07:44:11.302Z,10.10
2023-03-17T07:46:38.912Z,10.33
2023-03-17T07:49:06.149Z,10.18
2023-03-17T07:51:32.715Z,10.49
2023-03-17T07:54:03.965Z,10.71
2023-03-17T07:56:31.614Z,10.49
2023-03-17T07:58:59.799Z,10.75
2023-03-17T08:01:27.712Z,10.83
2023-03-17T08:03:54.938Z,11.23
2023-03-17T08:06:21.736Z,11.60
2023-03-17T08:08:48.489Z,11.86
2023-03-17T08:11:15.616Z,11.41
2023-03-17T08:13:42.519Z,11.63
2023-03-17T08:16:09.550Z,11.90
2023-03-17T08:18:36.969Z,12.31
2023-03-17T08:21:03.883Z,12.82
2023-03-17T08:23:31.055Z,13.28
2023-03-17T08:25:59.283Z,13.55
2023-03-17T08:28:26.165Z,11.93
2023-03-17T08:30:52.787Z,11.94
2023-03-17T08:33:19.497Z,12.43
2023-03-17T08:35:46.983Z,12.64
2023-03-17T08:38:13.692Z,12.98
2023-03-17T08:40:41.100Z,11.36
2023-03-17T08:43:07.748Z,12.55
2023-03-17T08:45:34.529Z,12.65
2023-03-17T08:48:01.274Z,12.91
2023-03-17T08:50:27.923Z,12.57
2023-03-17T08:52:55.064Z,12.76
2023-03-17T08:55:21.636Z,12.78
2023-03-17T08:57:48.670Z,12.75
2023-03-17T09:00:20.328Z,13.52
2023-03-17T09:02:48.094Z,13.90
2023-03-17T09:05:16.789Z,13.32
2023-03-17T09:07:43.730Z,13.62
2023-03-17T09:10:11.357Z,13.87
2023-03-17T09:12:38.196Z,13.83
2023-03-17T09:15:06.270Z,14.41
2023-03-17T09:17:33.148Z,12.94
2023-03-17T09:19:59.707Z,14.06
2023-03-17T09:22:26.273Z,13.80
2023-03-17T09:24:53.235Z,14.07
2023-03-17T09:27:19.804Z,14.47
2023-03-17T09:29:46.607Z,15.06
2023-03-17T09:32:13.127Z,14.42
2023-03-17T09:34:39.740Z,14.78
2023-03-17T09:37:06.755Z,15.55
2023-03-17T09:39:33.546Z,15.15
2023-03-17T09:42:27.036Z,15.55
2023-03-17T09:45:01.340Z,15.35
2023-03-17T09:47:47.063Z,14.87
2023-03-17T09:50:20.032Z,13.86
2023-03-17T09:52:47.605Z,13.84
2023-03-17T09:55:24.815Z,15.26
2023-03-17T09:57:52.259Z,15.65
2023-03-17T10:00:23.134Z,15.62
2023-03-17T10:02:49.677Z,15.92
2023-03-17T10:05:21.263Z,16.06
2023-03-17T10:08:29.384Z,14.55
2023-03-17T10:11:15.855Z,15.90
2023-03-17T10:13:53.150Z,16.61
2023-03-17T10:16:22.150Z,16.10
2023-03-17T10:19:07.463Z,15.93
2023-03-17T10:21:35.989Z,16.08
2023-03-17T10:24:03.603Z,16.92
2023-03-17T10:26:34.002Z,17.08
2023-03-17T10:29:04.149Z,17.23
2023-03-17T10:31:33.462Z,17.09
2023-03-17T10:34:13.285Z,17.20
2023-03-17T10:36:42.585Z,17.49
2023-03-17T10:39:12.999Z,16.91
2023-03-17T10:41:41.530Z,16.51
2023-03-17T10:44:10.015Z,16.16
2023-03-17T10:46:38.388Z,16.76
2023-03-17T10:49:17.151Z,16.66
2023-03-17T10:51:46.366Z,17.30
2023-03-17T10:54:17.929Z,17.67
2023-03-17T10:56:47.893Z,17.50
2023-03-17T10:59:33.032Z,17.41
2023-03-17T11:02:01.386Z,18.37
2023-03-17T11:04:30.643Z,18.34
2023-03-17T11:06:58.604Z,18.01
2023-03-17T11:09:28.032Z,19.23
2023-03-17T11:12:18.441Z,19.14
2023-03-17T11:14:45.054Z,18.38
2023-03-17T11:17:20.880Z,18.58
2023-03-17T11:20:11.444Z,19.34
2023-03-17T11:22:40.442Z,19.50
2023-03-17T11:25:23.230Z,17.91
2023-03-17T11:28:04.905Z,18.15
2023-03-17T11:30:34.888Z,18.66
2023-03-17T11:33:06.200Z,19.26
2023-03-17T11:35:41.322Z,19.07
2023-03-17T11:38:20.623Z,18.91
2023-03-17T11:41:18.077Z,18.42
2023-03-17T11:43:59.551Z,19.66
2023-03-17T11:46:36.922Z,19.40
2023-03-17T11:49:22.759Z,19.43
2023-03-17T11:51:56.587Z,19.57
2023-03-17T11:54:42.899Z,19.85
2023-03-17T11:57:15.316Z,19.82
2023-03-17T11:59:47.668Z,19.70
2023-03-17T12:02:39.404Z,20.24
2023-03-17T12:05:10.451Z,20.55
2023-03-17T12:07:42.229Z,20.84
2023-03-17T12:10:34.878Z,20.71
2023-03-17T12:13:13.519Z,20.85
2023-03-17T12:15:45.518Z,19.32
2023-03-17T12:18:18.024Z,19.57
2023-03-17T12:20:58.654Z,20.19
2023-03-17T12:23:33.119Z,19.25
2023-03-17T12:26:14.107Z,19.99
2023-03-17T12:29:03.676Z,20.26
2023-03-17T12:31:36.018Z,20.30
2023-03-17T12:34:34.165Z,20.49
2023-03-17T12:37:02.025Z,20.80
2023-03-17T12:39:34.188Z,20.14
2023-03-17T12:42:32.778Z,19.95
2023-03-17T12:45:23.882Z,20.02
2023-03-17T12:47:52.824Z,20.03
2023-03-17T12:50:25.934Z,20.50
2023-03-17T12:52:57.631Z,20.49
2023-03-17T12:55:27.900Z,20.58
2023-03-17T12:58:02.100Z,20.74
2023-03-17T13:00:31.616Z,20.84
2023-03-17T13:03:23.841Z,20.77
2023-03-17T13:05:53.883Z,20.92
2023-03-17T13:08:28.259Z,20.86
2023-03-17T13:11:13.830Z,21.01
2023-03-17T13:13:50.996Z,20.87
2023-03-17T13:16:26.836Z,20.67
2023-03-17T13:19:07.405Z,20.04
2023-03-17T13:21:36.344Z,19.78
2023-03-17T13:24:21.713Z,20.34
2023-03-17T13:26:56.342Z,20.43
2023-03-17T13:29:25.761Z,20.56
2023-03-17T13:31:52.379Z,20.84
2023-03-17T13:34:19.948Z,20.45
2023-03-17T13:37:05.467Z,20.63
2023-03-17T13:39:37.964Z,20.32
2023-03-17T13:42:29.609Z,20.61
2023-03-17T13:45:16.252Z,20.94
2023-03-17T13:47:43.605Z,21.00
2023-03-17T13:50:22.383Z,21.00
2023-03-17T13:52:53.600Z,21.00
2023-03-17T13:55:20.469Z,20.73
2023-03-17T13:58:15.920Z,20.89
2023-03-17T14:00:50.640Z,20.94
2023-03-17T14:03:29.394Z,21.23
2023-03-17T14:05:56.494Z,21.17
2023-03-17T14:08:35.036Z,21.11
2023-03-17T14:11:04.476Z,21.17
2023-03-17T14:13:43.818Z,21.02
2023-03-17T14:16:32.356Z,21.27
2023-03-17T14:19:09.536Z,21.18
2023-03-17T14:21:36.535Z,21.21
2023-03-17T14:24:30.062Z,21.15
2023-03-17T14:26:57.008Z,20.94
2023-03-17T14:29:29.145Z,21.05
2023-03-17T14:32:10.763Z,21.11
2023-03-17T14:34:48.240Z,21.16
2023-03-17T14:37:15.085Z,21.24
2023-03-17T14:39:50.171Z,21.34
2023-03-17T14:42:19.710Z,21.34
2023-03-17T14:44:46.308Z,21.19
2023-03-17T14:47:21.559Z,21.00
2023-03-17T14:49:48.455Z,21.18
2023-03-17T14:52:29.118Z,21.11
2023-03-17T14:54:58.588Z,21.09
2023-03-17T14:57:32.738Z,21.10
2023-03-17T15:00:32.369Z,20.86
2023-03-17T15:03:01.971Z,20.66
2023-03-17T15:05:29.170Z,20.30
2023-03-17T15:07:56.120Z,19.81
2023-03-17T15:10:30.940Z,19.64
2023-03-17T15:13:01.798Z,19.94
2023-03-17T15:15:33.855Z,19.85
2023-03-17T15:18:04.170Z,20.36
2023-03-17T15:20:31.683Z,20.34
2023-03-17T15:23:13.446Z,20.16
2023-03-17T15:25:43.533Z,20.46
2023-03-17T15:28:22.997Z,20.45
2023-03-17T15:30:51.729Z,20.55
2023-03-17T15:33:38.324Z,20.50
2023-03-17T15:36:05.322Z,20.23
2023-03-17T15:38:39.208Z,20.29
2023-03-17T15:41:06.144Z,20.29
2023-03-17T15:43:35.734Z,20.20
2023-03-17T15:46:16.561Z,20.21
2023-03-17T15:48:43.134Z,20.28
2023-03-17T15:51:10.790Z,20.25
2023-03-17T15:53:37.303Z,19.68
2023-03-17T15:56:03.865Z,19.82
2023-03-17T15:58:30.397Z,19.93
2023-03-17T16:00:57.981Z,19.84
2023-03-17T16:03:27.235Z,19.81
2023-03-17T16:05:53.837Z,19.71
2023-03-17T16:08:21.777Z,19.66
2023-03-17T16:10:48.320Z,19.63
2023-03-17T16:13:14.729Z,19.29
2023-03-17T16:15:42.005Z,19.49
2023-03-17T16:18:11.703Z,19.10
2023-03-17T16:20:38.961Z,19.44
2023-03-17T16:23:15.803Z,19.08
2023-03-17T16:25:42.282Z,19.13
2023-03-17T16:28:40.977Z,18.81
2023-03-17T16:31:22.863Z,19.08
2023-03-17T16:33:50.654Z,19.10
2023-03-17T16:36:21.185Z,19.05
2023-03-17T16:38:48.026Z,19.11
2023-03-17T16:41:20.685Z,19.20
2023-03-17T16:43:51.247Z,19.21
2023-03-17T16:46:18.427Z,19.08
2023-03-17T16:48:45.012Z,19.06
2023-03-17T16:51:11.853Z,18.82
2023-03-17T16:53:38.422Z,18.83
2023-03-17T16:56:10.388Z,18.59
2023-03-17T16:58:37.008Z,18.83
2023-03-17T17:01:11.234Z,18.73
2023-03-17T17:03:38.127Z,18.59
2023-03-17T17:06:06.997Z,18.65
2023-03-17T17:08:33.542Z,18.49
2023-03-17T17:11:00.061Z,18.35
2023-03-17T17:13:26.612Z,18.26
2023-03-17T17:15:53.473Z,17.87
2023-03-17T17:18:24.677Z,17.78
2023-03-17T17:20:52.404Z,17.76
2023-03-17T17:23:21.567Z,17.72
2023-03-17T17:25:49.226Z,17.61
2023-03-17T17:28:17.567Z,17.56
2023-03-17T17:30:47.822Z,17.29
2023-03-17T17:33:16.127Z,17.18
2023-03-17T17:35:43.655Z,16.71
2023-03-17T17:38:20.355Z,16.22
2023-03-17T17:40:47.530Z,16.72
2023-03-17T17:43:14.168Z,15.93
2023-03-17T17:45:41.997Z,15.83
2023-03-17T17:48:10.393Z,16.00
2023-03-17T17:50:36.927Z,15.50
2023-03-17T17:53:05.693Z,15.20
2023-03-17T17:55:33.733Z,16.01
2023-03-17T17:58:01.203Z,15.83
2023-03-17T18:00:28.993Z,16.37
2023-03-17T18:02:55.810Z,16.80
2023-03-17T18:05:22.449Z,16.86
2023-03-17T18:07:49.076Z,16.84
2023-03-17T18:10:24.924Z,16.88
2023-03-17T18:12:52.140Z,15.76
2023-03-17T18:15:19.638Z,15.33
2023-03-17T18:17:46.682Z,15.35
2023-03-17T18:20:17.148Z,15.25
2023-03-17T18:22:43.732Z,15.90
2023-03-17T18:25:11.722Z,16.03
2023-03-17T18:27:39.029Z,16.00
2023-03-17T18:30:07.606Z,15.94
2023-03-17T18:32:34.630Z,15.85
2023-03-17T18:35:05.592Z,15.88
2023-03-17T18:37:32.521Z,15.73
2023-03-17T18:40:13.340Z,15.70
2023-03-17T18:42:41.863Z,15.64
2023-03-17T18:45:09.866Z,15.75
2023-03-17T18:47:38.838Z,15.55
2023-03-17T18:50:07.044Z,15.76
2023-03-17T18:52:35.450Z,15.68
2023-03-17T18:55:02.987Z,15.32
2023-03-17T18:57:29.560Z,15.17
2023-03-17T18:59:56.235Z,15.49
2023-03-17T19:02:22.876Z,15.60
2023-03-17T19:04:49.712Z,15.14
2023-03-17T19:07:17.917Z,15.43
2023-03-17T19:09:44.731Z,15.16
2023-03-17T19:12:11.300Z,15.06
2023-03-17T19:14:38.823Z,15.30
2023-03-17T19:17:06.249Z,15.47
2023-03-17T19:19:33.605Z,15.34
2023-03-17T19:22:00.829Z,15.27
2023-03-17T19:24:27.483Z,15.22
2023-03-17T19:26:54.026Z,15.20
2023-03-17T19:29:20.604Z,15.09
2023-03-17T19:31:48.564Z,15.19
2023-03-17T19:34:15.471Z,15.25
2023-03-17T19:36:43.534Z,15.08
2023-03-17T19:39:14.005Z,15.09
2023-03-17T19:41:40.822Z,15.21
2023-03-17T19:44:07.662Z,15.07
2023-03-17T19:46:36.030Z,14.98
2023-03-17T19:49:03.084Z,15.02
2023-03-17T19:51:29.582Z,14.77
2023-03-17T19:53:56.131Z,14.72
2023-03-17T19:56:23.174Z,14.60
2023-03-17T19:58:50.051Z,14.69
2023-03-17T20:01:17.216Z,14.40
2023-03-17T20:03:43.881Z,14.67
2023-03-17T20:06:14.474Z,14.59
2023-03-17T20:08:42.721Z,14.40
2023-03-17T20:11:11.520Z,14.26
2023-03-17T20:13:38.484Z,14.42
2023-03-17T20:16:06.283Z,14.50
2023-03-17T20:18:33.031Z,13.97
2023-03-17T20:21:00.254Z,14.21
2023-03-17T20:23:26.972Z,14.32
2023-03-17T20:25:53.868Z,14.27
2023-03-17T20:28:24.335Z,13.85
2023-03-17T20:30:51.007Z,13.98
2023-03-17T20:33:17.710Z,13.99
2023-03-17T20:35:46.863Z,14.03
2023-03-17T20:38:14.648Z,13.82
2023-03-17T20:40:42.414Z,13.87
2023-03-17T20:43:09.494Z,13.76
2023-03-17T20:45:36.934Z,13.79
2023-03-17T20:48:05.006Z,13.48
2023-03-17T20:50:33.019Z,13.59
2023-03-17T20:53:00.416Z,13.57
2023-03-17T20:55:27.397Z,13.35
2023-03-17T20:57:53.939Z,13.63
2023-03-17T21:00:22.179Z,13.58
2023-03-17T21:02:50.266Z,13.88
2023-03-17T21:05:23.440Z,13.60
2023-03-17T21:07:49.994Z,13.73
2023-03-17T21:10:17.405Z,13.81
2023-03-17T21:12:44.279Z,13.93
2023-03-17T21:15:12.895Z,13.93
2023-03-17T21:17:40.135Z,14.07
2023-03-17T21:20:09.535Z,14.12
2023-03-17T21:22:36.826Z,13.91
2023-03-17T21:25:04.702Z,14.18
2023-03-17T21:27:31.325Z,14.23
2023-03-17T21:29:58.024Z,14.22
2023-03-17T21:32:24.740Z,14.25
2023-03-17T21:34:51.816Z,14.31
2023-03-17T21:37:18.767Z,14.39
2023-03-17T21:39:45.859Z,14.45
2023-03-17T21:42:12.714Z,14.28
2023-03-17T21:44:39.587Z,14.25
2023-03-17T21:47:06.146Z,14.19
2023-03-17T21:49:32.694Z,14.36
2023-03-17T21:51:59.240Z,14.27
2023-03-17T21:54:26.286Z,14.34
2023-03-17T21:56:53.435Z,14.18
2023-03-17T21:59:20.904Z,14.43
2023-03-17T22:01:47.804Z,14.36
2023-03-17T22:04:14.369Z,14.36
2023-03-17T22:06:41.218Z,14.27
2023-03-17T22:09:08.669Z,14.30
2023-03-17T22:11:35.689Z,14.37
2023-03-17T22:14:02.444Z,14.18
2023-03-17T22:16:30.732Z,14.02
2023-03-17T22:18:57.426Z,14.05
2023-03-17T22:21:25.043Z,14.02
2023-03-17T22:23:51.710Z,13.43
2023-03-17T22:26:20.808Z,13.61
2023-03-17T22:28:49.038Z,13.75
2023-03-17T22:31:16.917Z,13.96
2023-03-17T22:33:44.006Z,13.58
2023-03-17T22:36:10.600Z,13.87
2023-03-17T22:38:37.574Z,13.60
2023-03-17T22:41:07.826Z,13.80
2023-03-17T22:43:35.344Z,13.78
2023-03-17T22:46:01.916Z,13.67
2023-03-17T22:48:28.502Z,13.88
2023-03-17T22:50:55.181Z,13.83
2023-03-17T22:53:21.741Z,13.87
2023-03-17T22:55:48.318Z,13.82
2023-03-17T22:58:14.849Z,13.83
2023-03-17T23:00:42.404Z,13.58
2023-03-17T23:03:12.240Z,13.55
2023-03-17T23:05:38.812Z,13.23
2023-03-17T23:08:05.424Z,13.52
2023-03-17T23:10:33.673Z,13.34
2023-03-17T23:13:00.302Z,13.28
2023-03-17T23:15:27.050Z,13.16
2023-03-17T23:17:54.616Z,13.14
2023-03-17T23:20:21.157Z,13.09
2023-03-17T23:22:48.003Z,13.30
2023-03-17T23:25:14.539Z,13.14
2023-03-17T23:27:41.390Z,13.19
2023-03-17T23:30:11.289Z,13.21
2023-03-17T23:32:39.264Z,12.75
2023-03-17T23:35:07.038Z,12.72
2023-03-17T23:37:33.591Z,12.81
2023-03-17T23:40:00.854Z,12.95
2023-03-17T23:42:29.284Z,13.02
2023-03-17T23:44:56.305Z,12.86
2023-03-17T23:47:23.291Z,12.87
2023-03-17T23:49:50.010Z,12.82
2023-03-17T23:52:16.901Z,12.69
2023-03-17T23:54:44.056Z,12.76
2023-03-17T23:57:10.740Z,12.77
2023-03-17T23:59:37.305Z,12.68
